METAR stanice u blizini

 

LYBE - Beograd / Surčin, Srbija
Ažurirano: 23/09/2020 11:00
Vedro
Vedro
 Pravac vetra J
Vetar: J 9 km/h
Temperatura: 27°C
Heat Index: 27°C
Tačka rose: 13°C
Vlažnost: 42%
Pritisak: 1012 hPa
Pregled: Vedro
Vidljivost: greater than 10 km
2020/09/23 09:00 LYBE 230900Z 17005KT 110V220 CAVOK 27/13 Q1012 NOSIG
LYBT - Beograd / Batajnica, Srbija
Ažurirano: 23/09/2020 11:00
Vedro
Vedro
 Pravac vetra J
Vetar: J 7 km/h
Temperatura: 27°C
Tačka rose: 12°C
Vlažnost: 39%
Pritisak: 1011 hPa
Pregled: Vedro
Vidljivost: greater than 10 km
2020/09/23 09:00 LYBT 230900Z 19004KT 120V290 CAVOK 27/12 Q1011 NOSIG
LYVR - Vršac, Srbija
Ažurirano: 23/09/2020 11:00
Vedro
Vedro
 Pravac vetra JI
Vetar: JI 31 km/h
Temperatura: 25°C
Tačka rose: 10°C
Vlažnost: 39%
Pritisak: 1012 hPa
Pregled: Vedro
Vidljivost: greater than 10 km
2020/09/23 09:00 LYVR 230900Z 13017KT 100V160 CAVOK 25/10 Q1012 NOSIG
 
LYKV - Lađevci, Srbija
Ažurirano: 23/09/2020 11:00
Partly Cloudy
Partly Cloudy
 Pravac vetra varies
Vetar: varies 4 km/h
Temperatura: 22°C
Tačka rose: 15°C
Vlažnost: 65%
Pritisak: 1013 hPa
Oblaci: Partly Cloudy
Vidljivost: 10 km
Cloud details: Partly Cloudy 1006 m
2020/09/23 09:00 LYKV 230900Z VRB02KT 9999 SCT033 22/15 Q1013 NOSIG
LYNI - Niš, Srbija
Ažurirano: 23/09/2020 11:00
Vedro
Vedro
 Pravac vetra J
Vetar: J 11 km/h
Temperatura: 23°C
Tačka rose: 13°C
Vlažnost: 53%
Pritisak: 1014 hPa
Pregled: Vedro
Vidljivost: greater than 10 km
2020/09/23 09:00 LYNI 230900Z 19006KT 120V250 CAVOK 23/13 Q1014 NOSIG
BKPR - Priština, Srbija
Ažurirano: 23/09/2020 11:00
Mostly Cloudy
Mostly Cloudy
 Pravac vetra varies
Vetar: varies 6 km/h
Temperatura: 18°C
Tačka rose: 13°C
Vlažnost: 73%
Pritisak: 1017 hPa
Oblaci: Mostly Cloudy
Vidljivost: 10 km
Cloud details: Few Clouds 427 m
Partly Cloudy 914 m
Mostly Cloudy 2134 m
2020/09/23 09:00 BKPR 230900Z VRB03KT 9999 FEW014 SCT030 BKN070 18/13 Q1017 NOSIG
 
LHPP - Pecs / Pogany, Hungary
Ažurirano: 23/09/2020 10:45
Vedro
Vedro
 Pravac vetra JJZ
Vetar: JJZ 2 km/h
Temperatura: 20°C
Tačka rose: 14°C
Vlažnost: 69%
Pritisak: 1011 hPa
Pregled: Vedro
Vidljivost: greater than 10 km
2020/09/23 08:45 LHPP 230845Z 21001KT CAVOK 20/14 Q1011
LHUD - Szeged, Hungary
Ažurirano: 04/07/2019 01:45
NOT Current
Vedro
Vedro
 Pravac vetra S
Vetar: S 7 km/h
Temperatura: 18°C
Tačka rose: 13°C
Vlažnost: 73%
Pritisak: 1019 hPa
Pregled: Vedro
Vidljivost: greater than 10 km
2019/07/03 23:45 LHUD 032345Z 35004KT CAVOK 18/13 Q1019
LRTR - Timisoara, Romania
Ažurirano: 23/09/2020 11:00
Vedro
Vedro
 Pravac vetra J
Vetar: J 17 km/h
Temperatura: 26°C
Tačka rose: 11°C
Vlažnost: 39%
Pritisak: 1012 hPa
Pregled: Vedro
Vidljivost: greater than 10 km
2020/09/23 09:00 LRTR 230900Z 18009KT 150V220 CAVOK 26/11 Q1012
 
LRCV - Craiova, Romania
Ažurirano: 23/09/2020 11:00
Vedro
Vedro
 Pravac vetra I
Vetar: I 13 km/h
Temperatura: 22°C
Tačka rose: 10°C
Vlažnost: 47%
Pritisak: 1015 hPa
Pregled: Vedro
Vidljivost: greater than 10 km
2020/09/23 09:00 LRCV 230900Z 09007KT CAVOK 22/10 Q1015
LBSF - Sofia, Bulgaria
Ažurirano: 23/09/2020 11:00
Partly Cloudy
Partly Cloudy
 Pravac vetra JZ
Vetar: JZ 7 km/h
Temperatura: 19°C
Tačka rose: 10°C
Vlažnost: 56%
Pritisak: 1017 hPa
Oblaci: Partly Cloudy
Vidljivost: 10 km
Cloud details: Partly Cloudy 2408 m
2020/09/23 09:00 LBSF 230900Z 22004KT 190V260 9999 SCT079 19/10 Q1017 NOSIG
LWSK - Skoplje, Makedonija
Ažurirano: 23/09/2020 11:00
Partly Cloudy
Partly Cloudy
 Pravac vetra calm
Vetar: Tišina
Temperatura: 20°C
Tačka rose: 16°C
Vlažnost: 78%
Pritisak: 1017 hPa
Oblaci: Partly Cloudy
Vidljivost: 10 km
Cloud details: Few Clouds 701 m
Partly Cloudy 3048 m
2020/09/23 09:00 LWSK 230900Z 00000KT 9999 FEW023 SCT100 20/16 Q1017 NOSIG
 
LYPG - Podgorica, Crna Gora
Ažurirano: 23/09/2020 11:00
Partly Cloudy
Partly Cloudy
 Pravac vetra varies
Vetar: varies 4 km/h
Temperatura: 20°C
Tačka rose: 18°C
Vlažnost: 88%
Pritisak: 1016 hPa
Oblaci: Partly Cloudy
Vidljivost: 10 km
Cloud details: Few Clouds 488 m
Few Clouds 732 m
Partly Cloudy 1524 m
2020/09/23 09:00 LYPG 230900Z VRB02KT 9999 FEW016 FEW024TCU SCT050 20/18 Q1016 RESHRA NOSIG
LQSA - Sarajevo, Bosna i Hercegovina
Ažurirano: 23/09/2020 11:00
Few Clouds
Few Clouds
 Pravac vetra varies
Vetar: varies 2 km/h
Temperatura: 17°C
Tačka rose: 17°C
Vlažnost: 100%
Pritisak: 1014 hPa
Oblaci: Few Clouds
Vidljivost: 8 km
Cloud details: Few Clouds 1372 m
2020/09/23 09:00 LQSA 230900Z VRB01KT 8000 FEW045 17/17 Q1014 NOSIG
LDOS - Osijek, Hrvatksa
Ažurirano: 23/09/2020 11:00
Vedro
Vedro
 Pravac vetra JJZ
Vetar: JJZ 11 km/h
Temperatura: 23°C
Tačka rose: 14°C
Vlažnost: 57%
Pritisak: 1011 hPa
Pregled: Vedro
Vidljivost: greater than 10 km
2020/09/23 09:00 LDOS 230900Z 20006KT 170V240 CAVOK 23/14 Q1011